sensor_id;sensor_type;location;lat;lon;timestamp;temperature;humidity
67157;SHT31;54086;50.126;8.710;2023-08-31T00:02:02;14.49;95.72
67157;SHT31;54086;50.126;8.710;2023-08-31T00:04:29;14.61;95.79
67157;SHT31;54086;50.126;8.710;2023-08-31T00:06:57;14.68;95.35
67157;SHT31;54086;50.126;8.710;2023-08-31T00:09:23;14.72;95.21
67157;SHT31;54086;50.126;8.710;2023-08-31T00:11:50;14.72;95.45
67157;SHT31;54086;50.126;8.710;2023-08-31T00:14:16;14.76;95.11
67157;SHT31;54086;50.126;8.710;2023-08-31T00:16:42;14.68;94.80
67157;SHT31;54086;50.126;8.710;2023-08-31T00:19:08;14.68;95.05
67157;SHT31;54086;50.126;8.710;2023-08-31T00:21:33;14.73;95.07
67157;SHT31;54086;50.126;8.710;2023-08-31T00:23:58;14.76;94.90
67157;SHT31;54086;50.126;8.710;2023-08-31T00:26:24;14.83;94.99
67157;SHT31;54086;50.126;8.710;2023-08-31T00:28:50;14.83;94.61
67157;SHT31;54086;50.126;8.710;2023-08-31T00:31:16;14.75;94.91
67157;SHT31;54086;50.126;8.710;2023-08-31T00:33:41;14.82;94.52
67157;SHT31;54086;50.126;8.710;2023-08-31T00:36:06;14.85;94.79
67157;SHT31;54086;50.126;8.710;2023-08-31T00:38:32;14.95;94.65
67157;SHT31;54086;50.126;8.710;2023-08-31T00:40:58;14.90;94.35
67157;SHT31;54086;50.126;8.710;2023-08-31T00:43:23;15.02;93.42
67157;SHT31;54086;50.126;8.710;2023-08-31T00:45:51;15.02;93.14
67157;SHT31;54086;50.126;8.710;2023-08-31T00:48:17;15.00;93.08
67157;SHT31;54086;50.126;8.710;2023-08-31T00:50:44;15.06;92.86
67157;SHT31;54086;50.126;8.710;2023-08-31T00:53:10;15.10;92.69
67157;SHT31;54086;50.126;8.710;2023-08-31T00:55:36;15.02;92.78
67157;SHT31;54086;50.126;8.710;2023-08-31T00:58:04;14.97;92.93
67157;SHT31;54086;50.126;8.710;2023-08-31T01:01:35;15.03;93.18
67157;SHT31;54086;50.126;8.710;2023-08-31T01:09:31;15.00;93.24
67157;SHT31;54086;50.126;8.710;2023-08-31T01:12:10;14.90;93.59
67157;SHT31;54086;50.126;8.710;2023-08-31T01:14:52;14.75;94.07
67157;SHT31;54086;50.126;8.710;2023-08-31T01:17:23;14.52;94.53
67157;SHT31;54086;50.126;8.710;2023-08-31T01:19:57;14.44;95.01
67157;SHT31;54086;50.126;8.710;2023-08-31T01:24:52;14.22;95.80
67157;SHT31;54086;50.126;8.710;2023-08-31T01:27:18;14.20;96.05
67157;SHT31;54086;50.126;8.710;2023-08-31T01:29:44;14.15;96.38
67157;SHT31;54086;50.126;8.710;2023-08-31T01:32:12;14.18;96.20
67157;SHT31;54086;50.126;8.710;2023-08-31T01:34:37;14.17;96.09
67157;SHT31;54086;50.126;8.710;2023-08-31T01:37:16;14.20;96.22
67157;SHT31;54086;50.126;8.710;2023-08-31T01:39:46;14.15;96.03
67157;SHT31;54086;50.126;8.710;2023-08-31T01:42:15;14.07;96.23
67157;SHT31;54086;50.126;8.710;2023-08-31T01:44:42;14.03;96.34
67157;SHT31;54086;50.126;8.710;2023-08-31T01:47:10;13.98;96.70
67157;SHT31;54086;50.126;8.710;2023-08-31T01:49:39;13.93;96.75
67157;SHT31;54086;50.126;8.710;2023-08-31T01:52:06;13.84;96.95
67157;SHT31;54086;50.126;8.710;2023-08-31T01:54:31;13.83;96.95
67157;SHT31;54086;50.126;8.710;2023-08-31T01:56:57;13.84;96.76
67157;SHT31;54086;50.126;8.710;2023-08-31T01:59:22;13.86;96.83
67157;SHT31;54086;50.126;8.710;2023-08-31T02:01:48;13.88;96.82
67157;SHT31;54086;50.126;8.710;2023-08-31T02:04:13;13.80;96.84
67157;SHT31;54086;50.126;8.710;2023-08-31T02:06:39;13.73;96.83
67157;SHT31;54086;50.126;8.710;2023-08-31T02:09:04;13.80;96.66
67157;SHT31;54086;50.126;8.710;2023-08-31T02:11:30;13.78;96.47
67157;SHT31;54086;50.126;8.710;2023-08-31T02:13:57;13.76;96.46
67157;SHT31;54086;50.126;8.710;2023-08-31T02:16:22;13.76;96.48
67157;SHT31;54086;50.126;8.710;2023-08-31T02:18:48;13.69;96.46
67157;SHT31;54086;50.126;8.710;2023-08-31T02:21:13;13.69;96.57
67157;SHT31;54086;50.126;8.710;2023-08-31T02:23:39;13.63;96.49
67157;SHT31;54086;50.126;8.710;2023-08-31T02:26:04;13.73;96.42
67157;SHT31;54086;50.126;8.710;2023-08-31T02:28:29;13.73;95.99
67157;SHT31;54086;50.126;8.710;2023-08-31T02:31:00;13.77;95.70
67157;SHT31;54086;50.126;8.710;2023-08-31T02:33:26;13.67;95.78
67157;SHT31;54086;50.126;8.710;2023-08-31T02:35:51;13.69;95.70
67157;SHT31;54086;50.126;8.710;2023-08-31T02:38:16;13.62;95.98
67157;SHT31;54086;50.126;8.710;2023-08-31T02:40:42;13.62;95.95
67157;SHT31;54086;50.126;8.710;2023-08-31T02:43:07;13.59;96.12
67157;SHT31;54086;50.126;8.710;2023-08-31T02:45:32;13.65;96.03
67157;SHT31;54086;50.126;8.710;2023-08-31T02:47:58;13.63;95.77
67157;SHT31;54086;50.126;8.710;2023-08-31T02:50:23;13.65;96.04
67157;SHT31;54086;50.126;8.710;2023-08-31T02:52:49;13.63;95.61
67157;SHT31;54086;50.126;8.710;2023-08-31T02:55:14;13.60;95.71
67157;SHT31;54086;50.126;8.710;2023-08-31T02:57:39;13.67;95.57
67157;SHT31;54086;50.126;8.710;2023-08-31T03:00:05;13.66;95.73
67157;SHT31;54086;50.126;8.710;2023-08-31T03:02:38;13.57;95.89
67157;SHT31;54086;50.126;8.710;2023-08-31T03:05:03;13.62;95.61
67157;SHT31;54086;50.126;8.710;2023-08-31T03:07:29;13.65;95.62
67157;SHT31;54086;50.126;8.710;2023-08-31T03:09:54;13.65;95.50
67157;SHT31;54086;50.126;8.710;2023-08-31T03:12:20;13.57;95.47
67157;SHT31;54086;50.126;8.710;2023-08-31T03:14:45;13.57;95.48
67157;SHT31;54086;50.126;8.710;2023-08-31T03:17:10;13.60;95.52
67157;SHT31;54086;50.126;8.710;2023-08-31T03:19:36;13.56;95.45
67157;SHT31;54086;50.126;8.710;2023-08-31T03:22:01;13.53;95.46
67157;SHT31;54086;50.126;8.710;2023-08-31T03:24:27;13.55;95.64
67157;SHT31;54086;50.126;8.710;2023-08-31T03:26:52;13.47;95.54
67157;SHT31;54086;50.126;8.710;2023-08-31T03:29:17;13.55;95.53
67157;SHT31;54086;50.126;8.710;2023-08-31T03:31:43;13.52;95.32
67157;SHT31;54086;50.126;8.710;2023-08-31T03:34:08;13.59;95.08
67157;SHT31;54086;50.126;8.710;2023-08-31T03:36:33;13.66;95.18
67157;SHT31;54086;50.126;8.710;2023-08-31T03:38:59;13.63;95.05
67157;SHT31;54086;50.126;8.710;2023-08-31T03:41:24;13.63;94.93
67157;SHT31;54086;50.126;8.710;2023-08-31T03:43:50;13.63;94.83
67157;SHT31;54086;50.126;8.710;2023-08-31T03:46:15;13.62;94.84
67157;SHT31;54086;50.126;8.710;2023-08-31T03:48:41;13.55;95.05
67157;SHT31;54086;50.126;8.710;2023-08-31T03:51:06;13.52;95.35
67157;SHT31;54086;50.126;8.710;2023-08-31T03:53:31;13.57;95.28
67157;SHT31;54086;50.126;8.710;2023-08-31T03:55:57;13.57;95.05
67157;SHT31;54086;50.126;8.710;2023-08-31T03:58:22;13.57;95.05
67157;SHT31;54086;50.126;8.710;2023-08-31T04:00:51;13.52;95.00
67157;SHT31;54086;50.126;8.710;2023-08-31T04:03:16;13.66;94.84
67157;SHT31;54086;50.126;8.710;2023-08-31T04:05:41;13.60;94.75
67157;SHT31;54086;50.126;8.710;2023-08-31T04:08:07;13.49;95.17
67157;SHT31;54086;50.126;8.710;2023-08-31T04:10:33;13.45;95.10
67157;SHT31;54086;50.126;8.710;2023-08-31T04:12:58;13.42;95.34
67157;SHT31;54086;50.126;8.710;2023-08-31T04:15:24;13.38;95.35
67157;SHT31;54086;50.126;8.710;2023-08-31T04:17:49;13.40;95.36
67157;SHT31;54086;50.126;8.710;2023-08-31T04:20:15;13.34;95.38
67157;SHT31;54086;50.126;8.710;2023-08-31T04:22:40;13.38;95.49
67157;SHT31;54086;50.126;8.710;2023-08-31T04:25:06;13.36;95.44
67157;SHT31;54086;50.126;8.710;2023-08-31T04:27:32;13.35;95.34
67157;SHT31;54086;50.126;8.710;2023-08-31T04:30:01;13.34;95.39
67157;SHT31;54086;50.126;8.710;2023-08-31T04:32:27;13.35;95.34
67157;SHT31;54086;50.126;8.710;2023-08-31T04:34:53;13.34;95.36
67157;SHT31;54086;50.126;8.710;2023-08-31T04:37:18;13.36;95.45
67157;SHT31;54086;50.126;8.710;2023-08-31T04:39:44;13.45;95.20
67157;SHT31;54086;50.126;8.710;2023-08-31T04:42:09;13.49;94.97
67157;SHT31;54086;50.126;8.710;2023-08-31T04:44:34;13.45;95.04
67157;SHT31;54086;50.126;8.710;2023-08-31T04:47:00;13.46;95.30
67157;SHT31;54086;50.126;8.710;2023-08-31T04:49:25;13.42;95.06
67157;SHT31;54086;50.126;8.710;2023-08-31T04:51:52;13.32;95.27
67157;SHT31;54086;50.126;8.710;2023-08-31T04:54:17;13.32;95.35
67157;SHT31;54086;50.126;8.710;2023-08-31T04:56:43;13.39;95.24
67157;SHT31;54086;50.126;8.710;2023-08-31T04:59:08;13.35;95.46
67157;SHT31;54086;50.126;8.710;2023-08-31T05:01:33;13.36;95.45
67157;SHT31;54086;50.126;8.710;2023-08-31T05:03:59;13.35;95.54
67157;SHT31;54086;50.126;8.710;2023-08-31T05:06:24;13.32;95.61
67157;SHT31;54086;50.126;8.710;2023-08-31T05:08:50;13.38;95.46
67157;SHT31;54086;50.126;8.710;2023-08-31T05:11:15;13.29;95.80
67157;SHT31;54086;50.126;8.710;2023-08-31T05:13:41;13.22;95.84
67157;SHT31;54086;50.126;8.710;2023-08-31T05:16:09;13.25;95.89
67157;SHT31;54086;50.126;8.710;2023-08-31T05:18:35;13.29;95.87
67157;SHT31;54086;50.126;8.710;2023-08-31T05:21:03;13.20;95.68
67157;SHT31;54086;50.126;8.710;2023-08-31T05:23:29;13.23;95.73
67157;SHT31;54086;50.126;8.710;2023-08-31T05:25:58;13.30;95.48
67157;SHT31;54086;50.126;8.710;2023-08-31T05:28:24;13.26;95.46
67157;SHT31;54086;50.126;8.710;2023-08-31T05:30:50;13.23;95.26
67157;SHT31;54086;50.126;8.710;2023-08-31T05:33:17;13.28;94.96
67157;SHT31;54086;50.126;8.710;2023-08-31T05:35:42;13.30;94.71
67157;SHT31;54086;50.126;8.710;2023-08-31T05:38:08;13.22;94.77
67157;SHT31;54086;50.126;8.710;2023-08-31T05:40:33;13.28;94.72
67157;SHT31;54086;50.126;8.710;2023-08-31T05:42:58;13.39;94.71
67157;SHT31;54086;50.126;8.710;2023-08-31T05:45:24;13.36;94.68
67157;SHT31;54086;50.126;8.710;2023-08-31T05:47:49;13.28;94.64
67157;SHT31;54086;50.126;8.710;2023-08-31T05:50:15;13.28;94.58
67157;SHT31;54086;50.126;8.710;2023-08-31T05:52:41;13.29;94.74
67157;SHT31;54086;50.126;8.710;2023-08-31T05:55:12;13.39;94.32
67157;SHT31;54086;50.126;8.710;2023-08-31T05:57:37;13.35;94.45
67157;SHT31;54086;50.126;8.710;2023-08-31T06:00:04;13.32;94.35
67157;SHT31;54086;50.126;8.710;2023-08-31T06:02:32;13.25;94.42
67157;SHT31;54086;50.126;8.710;2023-08-31T06:04:58;13.26;94.37
67157;SHT31;54086;50.126;8.710;2023-08-31T06:07:23;13.32;94.49
67157;SHT31;54086;50.126;8.710;2023-08-31T06:09:48;13.40;94.00
67157;SHT31;54086;50.126;8.710;2023-08-31T06:12:14;13.50;93.74
67157;SHT31;54086;50.126;8.710;2023-08-31T06:14:39;13.45;93.49
67157;SHT31;54086;50.126;8.710;2023-08-31T06:17:05;13.47;93.58
67157;SHT31;54086;50.126;8.710;2023-08-31T06:19:30;13.42;93.24
67157;SHT31;54086;50.126;8.710;2023-08-31T06:21:55;13.43;93.04
67157;SHT31;54086;50.126;8.710;2023-08-31T06:24:21;13.50;92.89
67157;SHT31;54086;50.126;8.710;2023-08-31T06:26:46;13.60;92.66
67157;SHT31;54086;50.126;8.710;2023-08-31T06:29:11;13.57;92.66
67157;SHT31;54086;50.126;8.710;2023-08-31T06:31:37;13.50;92.58
67157;SHT31;54086;50.126;8.710;2023-08-31T06:34:02;13.50;92.63
67157;SHT31;54086;50.126;8.710;2023-08-31T06:36:29;13.46;92.49
67157;SHT31;54086;50.126;8.710;2023-08-31T06:38:55;13.55;92.24
67157;SHT31;54086;50.126;8.710;2023-08-31T06:41:20;13.62;92.14
67157;SHT31;54086;50.126;8.710;2023-08-31T06:43:46;13.66;91.63
67157;SHT31;54086;50.126;8.710;2023-08-31T06:46:11;13.76;91.76
67157;SHT31;54086;50.126;8.710;2023-08-31T06:48:37;13.80;91.47
67157;SHT31;54086;50.126;8.710;2023-08-31T06:51:02;13.93;91.25
67157;SHT31;54086;50.126;8.710;2023-08-31T06:53:29;13.94;91.07
67157;SHT31;54086;50.126;8.710;2023-08-31T06:55:56;13.91;91.35
67157;SHT31;54086;50.126;8.710;2023-08-31T06:58:21;14.03;91.41
67157;SHT31;54086;50.126;8.710;2023-08-31T07:00:47;14.03;91.01
67157;SHT31;54086;50.126;8.710;2023-08-31T07:03:13;14.05;90.88
67157;SHT31;54086;50.126;8.710;2023-08-31T07:05:42;13.90;91.26
67157;SHT31;54086;50.126;8.710;2023-08-31T07:08:07;14.07;91.16
67157;SHT31;54086;50.126;8.710;2023-08-31T07:10:34;14.39;90.53
67157;SHT31;54086;50.126;8.710;2023-08-31T07:13:02;14.48;89.99
67157;SHT31;54086;50.126;8.710;2023-08-31T07:15:29;14.48;89.32
67157;SHT31;54086;50.126;8.710;2023-08-31T07:17:54;14.68;88.60
67157;SHT31;54086;50.126;8.710;2023-08-31T07:20:19;14.69;88.71
67157;SHT31;54086;50.126;8.710;2023-08-31T07:22:45;14.77;88.54
67157;SHT31;54086;50.126;8.710;2023-08-31T07:25:10;14.92;88.40
67157;SHT31;54086;50.126;8.710;2023-08-31T07:27:37;14.95;88.23
67157;SHT31;54086;50.126;8.710;2023-08-31T07:30:03;14.97;87.76
67157;SHT31;54086;50.126;8.710;2023-08-31T07:32:29;15.07;86.85
67157;SHT31;54086;50.126;8.710;2023-08-31T07:34:55;15.04;86.51
67157;SHT31;54086;50.126;8.710;2023-08-31T07:37:20;15.10;86.65
67157;SHT31;54086;50.126;8.710;2023-08-31T07:39:45;15.04;86.34
67157;SHT31;54086;50.126;8.710;2023-08-31T07:42:11;15.07;86.59
67157;SHT31;54086;50.126;8.710;2023-08-31T07:44:36;15.03;86.51
67157;SHT31;54086;50.126;8.710;2023-08-31T07:47:02;15.23;85.89
67157;SHT31;54086;50.126;8.710;2023-08-31T07:49:27;15.28;85.49
67157;SHT31;54086;50.126;8.710;2023-08-31T07:51:53;15.53;85.28
67157;SHT31;54086;50.126;8.710;2023-08-31T07:54:21;15.51;86.11
67157;SHT31;54086;50.126;8.710;2023-08-31T07:56:47;15.71;84.47
67157;SHT31;54086;50.126;8.710;2023-08-31T07:59:13;15.91;84.21
67157;SHT31;54086;50.126;8.710;2023-08-31T08:01:38;16.15;83.84
67157;SHT31;54086;50.126;8.710;2023-08-31T08:04:04;16.40;82.68
67157;SHT31;54086;50.126;8.710;2023-08-31T08:06:29;16.67;82.10
67157;SHT31;54086;50.126;8.710;2023-08-31T08:08:55;16.73;82.70
67157;SHT31;54086;50.126;8.710;2023-08-31T08:11:22;16.92;81.79
67157;SHT31;54086;50.126;8.710;2023-08-31T08:13:47;17.73;79.21
67157;SHT31;54086;50.126;8.710;2023-08-31T08:16:13;17.84;78.91
67157;SHT31;54086;50.126;8.710;2023-08-31T08:18:40;16.44;82.60
67157;SHT31;54086;50.126;8.710;2023-08-31T08:21:05;17.33;81.32
67157;SHT31;54086;50.126;8.710;2023-08-31T08:23:31;17.36;81.14
67157;SHT31;54086;50.126;8.710;2023-08-31T08:25:56;16.92;81.86
67157;SHT31;54086;50.126;8.710;2023-08-31T08:28:24;16.96;82.00
67157;SHT31;54086;50.126;8.710;2023-08-31T08:30:50;17.18;79.58
67157;SHT31;54086;50.126;8.710;2023-08-31T08:33:15;17.01;79.91
67157;SHT31;54086;50.126;8.710;2023-08-31T08:35:41;17.43;77.20
67157;SHT31;54086;50.126;8.710;2023-08-31T08:38:06;17.23;77.15
67157;SHT31;54086;50.126;8.710;2023-08-31T08:40:32;17.62;76.05
67157;SHT31;54086;50.126;8.710;2023-08-31T08:43:00;18.04;75.23
67157;SHT31;54086;50.126;8.710;2023-08-31T08:45:33;17.91;75.13
67157;SHT31;54086;50.126;8.710;2023-08-31T08:48:01;17.96;75.01
67157;SHT31;54086;50.126;8.710;2023-08-31T08:50:27;17.38;76.94
67157;SHT31;54086;50.126;8.710;2023-08-31T08:52:54;17.57;76.55
67157;SHT31;54086;50.126;8.710;2023-08-31T08:55:19;17.21;77.92
67157;SHT31;54086;50.126;8.710;2023-08-31T08:57:47;17.23;77.30
67157;SHT31;54086;50.126;8.710;2023-08-31T09:00:13;17.07;78.07
67157;SHT31;54086;50.126;8.710;2023-08-31T09:02:38;16.84;78.99
67157;SHT31;54086;50.126;8.710;2023-08-31T09:05:04;16.88;78.73
67157;SHT31;54086;50.126;8.710;2023-08-31T09:07:30;16.57;79.86
67157;SHT31;54086;50.126;8.710;2023-08-31T09:09:55;16.43;80.34
67157;SHT31;54086;50.126;8.710;2023-08-31T09:12:23;16.24;80.68
67157;SHT31;54086;50.126;8.710;2023-08-31T09:15:03;16.34;80.75
67157;SHT31;54086;50.126;8.710;2023-08-31T09:17:41;16.46;80.16
67157;SHT31;54086;50.126;8.710;2023-08-31T09:20:09;16.65;80.07
67157;SHT31;54086;50.126;8.710;2023-08-31T09:22:35;17.01;79.04
67157;SHT31;54086;50.126;8.710;2023-08-31T09:25:00;17.07;77.79
67157;SHT31;54086;50.126;8.710;2023-08-31T09:27:26;17.22;77.86
67157;SHT31;54086;50.126;8.710;2023-08-31T09:29:54;17.47;76.59
67157;SHT31;54086;50.126;8.710;2023-08-31T09:32:20;17.38;77.15
67157;SHT31;54086;50.126;8.710;2023-08-31T09:34:45;17.08;77.44
67157;SHT31;54086;50.126;8.710;2023-08-31T09:37:12;17.39;76.81
67157;SHT31;54086;50.126;8.710;2023-08-31T09:39:39;17.50;76.49
67157;SHT31;54086;50.126;8.710;2023-08-31T09:42:04;17.63;76.05
67157;SHT31;54086;50.126;8.710;2023-08-31T09:44:30;17.79;75.71
67157;SHT31;54086;50.126;8.710;2023-08-31T09:46:56;17.94;75.30
67157;SHT31;54086;50.126;8.710;2023-08-31T09:49:24;17.53;76.08
67157;SHT31;54086;50.126;8.710;2023-08-31T09:51:51;17.54;76.02
67157;SHT31;54086;50.126;8.710;2023-08-31T09:54:18;17.45;76.64
67157;SHT31;54086;50.126;8.710;2023-08-31T09:56:45;17.38;76.75
67157;SHT31;54086;50.126;8.710;2023-08-31T09:59:12;17.32;76.38
67157;SHT31;54086;50.126;8.710;2023-08-31T10:01:39;17.42;76.24
67157;SHT31;54086;50.126;8.710;2023-08-31T10:04:06;17.22;76.38
67157;SHT31;54086;50.126;8.710;2023-08-31T10:06:34;17.25;76.69
67157;SHT31;54086;50.126;8.710;2023-08-31T10:09:00;17.15;76.37
67157;SHT31;54086;50.126;8.710;2023-08-31T10:11:26;17.40;75.88
67157;SHT31;54086;50.126;8.710;2023-08-31T10:13:51;17.69;75.36
67157;SHT31;54086;50.126;8.710;2023-08-31T10:16:19;17.83;74.97
67157;SHT31;54086;50.126;8.710;2023-08-31T10:18:45;18.35;73.53
67157;SHT31;54086;50.126;8.710;2023-08-31T10:21:11;18.41;73.64
67157;SHT31;54086;50.126;8.710;2023-08-31T10:23:47;18.73;72.86
67157;SHT31;54086;50.126;8.710;2023-08-31T10:26:23;18.79;72.38
67157;SHT31;54086;50.126;8.710;2023-08-31T10:28:49;18.40;72.62
67157;SHT31;54086;50.126;8.710;2023-08-31T10:31:18;18.17;72.90
67157;SHT31;54086;50.126;8.710;2023-08-31T10:33:45;18.15;73.28
67157;SHT31;54086;50.126;8.710;2023-08-31T10:36:18;18.38;73.21
67157;SHT31;54086;50.126;8.710;2023-08-31T10:38:45;18.51;72.92
67157;SHT31;54086;50.126;8.710;2023-08-31T10:51:43;19.68;69.56
67157;SHT31;54086;50.126;8.710;2023-08-31T10:59:24;20.81;66.41
67157;SHT31;54086;50.126;8.710;2023-08-31T11:02:00;20.60;66.85
67157;SHT31;54086;50.126;8.710;2023-08-31T11:04:29;19.75;68.34
67157;SHT31;54086;50.126;8.710;2023-08-31T11:09:38;19.57;69.05
67157;SHT31;54086;50.126;8.710;2023-08-31T11:12:04;20.28;67.73
67157;SHT31;54086;50.126;8.710;2023-08-31T11:14:33;19.54;69.04
67157;SHT31;54086;50.126;8.710;2023-08-31T11:16:59;20.02;67.99
67157;SHT31;54086;50.126;8.710;2023-08-31T11:19:26;20.70;66.15
67157;SHT31;54086;50.126;8.710;2023-08-31T11:21:51;20.67;65.85
67157;SHT31;54086;50.126;8.710;2023-08-31T11:24:17;20.26;67.03
67157;SHT31;54086;50.126;8.710;2023-08-31T11:26:43;20.12;67.08
67157;SHT31;54086;50.126;8.710;2023-08-31T11:29:08;20.26;65.98
67157;SHT31;54086;50.126;8.710;2023-08-31T11:31:38;19.85;67.17
67157;SHT31;54086;50.126;8.710;2023-08-31T11:34:12;19.62;67.78
67157;SHT31;54086;50.126;8.710;2023-08-31T11:36:38;19.51;68.15
67157;SHT31;54086;50.126;8.710;2023-08-31T11:39:03;19.79;67.87
67157;SHT31;54086;50.126;8.710;2023-08-31T11:41:35;19.67;67.76
67157;SHT31;54086;50.126;8.710;2023-08-31T11:44:05;19.16;68.26
67157;SHT31;54086;50.126;8.710;2023-08-31T11:46:31;19.98;66.64
67157;SHT31;54086;50.126;8.710;2023-08-31T11:48:59;21.08;64.42
67157;SHT31;54086;50.126;8.710;2023-08-31T11:51:24;20.73;64.67
67157;SHT31;54086;50.126;8.710;2023-08-31T11:53:50;20.29;66.20
67157;SHT31;54086;50.126;8.710;2023-08-31T11:56:16;20.04;66.92
67157;SHT31;54086;50.126;8.710;2023-08-31T11:58:41;20.70;66.09
67157;SHT31;54086;50.126;8.710;2023-08-31T12:01:18;20.57;66.06
67157;SHT31;54086;50.126;8.710;2023-08-31T12:03:48;21.29;64.66
67157;SHT31;54086;50.126;8.710;2023-08-31T12:06:17;21.01;64.60
67157;SHT31;54086;50.126;8.710;2023-08-31T12:08:45;21.11;64.03
67157;SHT31;54086;50.126;8.710;2023-08-31T12:11:11;20.49;64.70
67157;SHT31;54086;50.126;8.710;2023-08-31T12:13:37;20.49;64.30
67157;SHT31;54086;50.126;8.710;2023-08-31T12:16:02;20.19;65.16
67157;SHT31;54086;50.126;8.710;2023-08-31T12:18:30;21.21;63.24
67157;SHT31;54086;50.126;8.710;2023-08-31T12:20:58;21.97;62.15
67157;SHT31;54086;50.126;8.710;2023-08-31T12:23:24;20.73;64.00
67157;SHT31;54086;50.126;8.710;2023-08-31T12:25:51;20.36;65.12
67157;SHT31;54086;50.126;8.710;2023-08-31T12:28:18;20.46;64.87
67157;SHT31;54086;50.126;8.710;2023-08-31T12:30:48;20.23;65.44
67157;SHT31;54086;50.126;8.710;2023-08-31T12:33:13;20.34;64.58
67157;SHT31;54086;50.126;8.710;2023-08-31T12:35:39;20.53;64.42
67157;SHT31;54086;50.126;8.710;2023-08-31T12:38:05;21.41;61.93
67157;SHT31;54086;50.126;8.710;2023-08-31T12:40:30;21.87;61.22
67157;SHT31;54086;50.126;8.710;2023-08-31T12:42:56;22.25;59.19
67157;SHT31;54086;50.126;8.710;2023-08-31T12:45:21;23.02;58.09
67157;SHT31;54086;50.126;8.710;2023-08-31T12:47:46;23.65;57.05
67157;SHT31;54086;50.126;8.710;2023-08-31T12:50:13;23.50;56.56
67157;SHT31;54086;50.126;8.710;2023-08-31T12:52:38;23.50;56.81
67157;SHT31;54086;50.126;8.710;2023-08-31T12:55:10;22.31;57.80
67157;SHT31;54086;50.126;8.710;2023-08-31T12:57:35;21.80;57.93
67157;SHT31;54086;50.126;8.710;2023-08-31T13:00:01;20.91;60.80
67157;SHT31;54086;50.126;8.710;2023-08-31T13:02:28;20.88;60.39
67157;SHT31;54086;50.126;8.710;2023-08-31T13:04:53;20.76;60.12
67157;SHT31;54086;50.126;8.710;2023-08-31T13:07:18;20.61;60.71
67157;SHT31;54086;50.126;8.710;2023-08-31T13:09:44;20.81;61.44
67157;SHT31;54086;50.126;8.710;2023-08-31T13:12:09;20.78;62.75
67157;SHT31;54086;50.126;8.710;2023-08-31T13:14:35;20.78;63.66
67157;SHT31;54086;50.126;8.710;2023-08-31T13:17:00;21.04;63.36
67157;SHT31;54086;50.126;8.710;2023-08-31T13:19:26;21.50;62.39
67157;SHT31;54086;50.126;8.710;2023-08-31T13:21:51;21.38;61.68
67157;SHT31;54086;50.126;8.710;2023-08-31T13:24:16;21.60;61.31
67157;SHT31;54086;50.126;8.710;2023-08-31T13:26:42;21.70;61.58
67157;SHT31;54086;50.126;8.710;2023-08-31T13:29:12;22.48;59.14
67157;SHT31;54086;50.126;8.710;2023-08-31T13:31:37;22.34;57.13
67157;SHT31;54086;50.126;8.710;2023-08-31T13:34:03;22.17;56.87
67157;SHT31;54086;50.126;8.710;2023-08-31T13:36:28;23.13;54.62
67157;SHT31;54086;50.126;8.710;2023-08-31T13:38:54;23.13;52.70
67157;SHT31;54086;50.126;8.710;2023-08-31T13:41:19;23.47;51.19
67157;SHT31;54086;50.126;8.710;2023-08-31T13:43:45;23.70;50.68
67157;SHT31;54086;50.126;8.710;2023-08-31T13:46:10;24.52;49.42
67157;SHT31;54086;50.126;8.710;2023-08-31T13:48:36;24.76;49.01
67157;SHT31;54086;50.126;8.710;2023-08-31T13:51:02;24.84;49.45
67157;SHT31;54086;50.126;8.710;2023-08-31T13:53:28;24.09;49.29
67157;SHT31;54086;50.126;8.710;2023-08-31T13:55:53;23.82;49.90
67157;SHT31;54086;50.126;8.710;2023-08-31T13:58:18;24.18;49.82
67157;SHT31;54086;50.126;8.710;2023-08-31T14:00:44;23.71;50.38
67157;SHT31;54086;50.126;8.710;2023-08-31T14:03:09;23.97;50.28
67157;SHT31;54086;50.126;8.710;2023-08-31T14:05:35;23.46;50.90
67157;SHT31;54086;50.126;8.710;2023-08-31T14:08:01;23.64;50.36
67157;SHT31;54086;50.126;8.710;2023-08-31T14:10:28;24.11;49.25
67157;SHT31;54086;50.126;8.710;2023-08-31T14:12:54;24.19;49.32
67157;SHT31;54086;50.126;8.710;2023-08-31T14:15:19;24.66;48.15
67157;SHT31;54086;50.126;8.710;2023-08-31T14:17:45;25.30;46.04
67157;SHT31;54086;50.126;8.710;2023-08-31T14:20:10;25.97;44.47
67157;SHT31;54086;50.126;8.710;2023-08-31T14:22:37;25.52;45.25
67157;SHT31;54086;50.126;8.710;2023-08-31T14:25:02;24.88;46.52
67157;SHT31;54086;50.126;8.710;2023-08-31T14:27:28;25.66;45.77
67157;SHT31;54086;50.126;8.710;2023-08-31T14:29:56;25.45;45.86
67157;SHT31;54086;50.126;8.710;2023-08-31T14:32:22;25.23;45.05
67157;SHT31;54086;50.126;8.710;2023-08-31T14:34:47;24.64;45.89
67157;SHT31;54086;50.126;8.710;2023-08-31T14:37:13;25.44;45.39
67157;SHT31;54086;50.126;8.710;2023-08-31T14:39:38;25.96;44.17
67157;SHT31;54086;50.126;8.710;2023-08-31T14:42:04;24.30;47.10
67157;SHT31;54086;50.126;8.710;2023-08-31T14:44:29;24.56;47.66
67157;SHT31;54086;50.126;8.710;2023-08-31T14:46:55;23.89;48.66
67157;SHT31;54086;50.126;8.710;2023-08-31T14:49:23;23.19;49.63
67157;SHT31;54086;50.126;8.710;2023-08-31T14:51:52;23.02;49.64
67157;SHT31;54086;50.126;8.710;2023-08-31T14:54:17;22.69;50.93
67157;SHT31;54086;50.126;8.710;2023-08-31T14:56:42;23.16;50.21
67157;SHT31;54086;50.126;8.710;2023-08-31T14:59:08;23.44;49.80
67157;SHT31;54086;50.126;8.710;2023-08-31T15:01:33;22.49;51.65
67157;SHT31;54086;50.126;8.710;2023-08-31T15:03:59;22.58;52.33
67157;SHT31;54086;50.126;8.710;2023-08-31T15:06:24;22.48;52.42
67157;SHT31;54086;50.126;8.710;2023-08-31T15:08:50;23.17;51.86
67157;SHT31;54086;50.126;8.710;2023-08-31T15:11:15;23.54;50.75
67157;SHT31;54086;50.126;8.710;2023-08-31T15:13:41;23.70;50.46
67157;SHT31;54086;50.126;8.710;2023-08-31T15:16:06;24.19;50.02
67157;SHT31;54086;50.126;8.710;2023-08-31T15:18:32;23.79;50.00
67157;SHT31;54086;50.126;8.710;2023-08-31T15:20:57;23.15;50.81
67157;SHT31;54086;50.126;8.710;2023-08-31T15:23:23;22.30;52.69
67157;SHT31;54086;50.126;8.710;2023-08-31T15:25:49;22.68;52.91
67157;SHT31;54086;50.126;8.710;2023-08-31T15:28:14;22.64;52.49
67157;SHT31;54086;50.126;8.710;2023-08-31T15:30:40;22.22;53.19
67157;SHT31;54086;50.126;8.710;2023-08-31T15:33:05;22.01;54.01
67157;SHT31;54086;50.126;8.710;2023-08-31T15:35:31;22.31;53.69
67157;SHT31;54086;50.126;8.710;2023-08-31T15:37:58;22.04;53.82
67157;SHT31;54086;50.126;8.710;2023-08-31T15:40:24;22.27;53.49
67157;SHT31;54086;50.126;8.710;2023-08-31T15:42:50;22.51;53.56
67157;SHT31;54086;50.126;8.710;2023-08-31T15:45:15;22.99;53.07
67157;SHT31;54086;50.126;8.710;2023-08-31T15:47:41;22.92;53.43
67157;SHT31;54086;50.126;8.710;2023-08-31T15:50:06;22.72;54.01
67157;SHT31;54086;50.126;8.710;2023-08-31T15:52:32;22.88;53.99